Terminal Aerodrome Forecast
Issued by NWS

Home | Current Version | Previous Version | Text Only | Print | Product List | Glossary On
Versions: 1 2 3 4 5 6 7 8 9 10 11 12
000
FTAK31 PANC 251140
TAFAGK
TAF
PAGK 251140Z 2512/2612 18006KT P6SM -RA FEW006 BKN050
     FM251800 15006KT 5SM -RA BR SCT015 BKN030
     FM260400 16004KT P6SM -SHRA SCT030 BKN050=

USA.gov is the U.S. government's official web portal to all federal, state and local government web resources and services.